sensor_id;sensor_type;location;lat;lon;timestamp;pressure;altitude;pressure_sealevel;temperature;humidity
63343;BME280;49465;57.664;39.686;2023-05-03T00:01:34;100576.41;;;10.21;41.46
63343;BME280;49465;57.664;39.686;2023-05-03T00:04:03;100581.72;;;10.20;40.54
63343;BME280;49465;57.664;39.686;2023-05-03T00:06:33;100574.97;;;10.32;41.46
63343;BME280;49465;57.664;39.686;2023-05-03T00:08:59;100571.50;;;10.15;41.20
63343;BME280;49465;57.664;39.686;2023-05-03T00:11:32;100569.94;;;10.27;41.57
63343;BME280;49465;57.664;39.686;2023-05-03T00:14:01;100562.88;;;10.13;40.75
63343;BME280;49465;57.664;39.686;2023-05-03T00:16:31;100552.50;;;10.12;41.39
63343;BME280;49465;57.664;39.686;2023-05-03T00:18:57;100551.75;;;10.09;41.85
63343;BME280;49465;57.664;39.686;2023-05-03T00:21:24;100549.16;;;10.09;41.15
63343;BME280;49465;57.664;39.686;2023-05-03T00:23:53;100553.72;;;10.06;41.76
63343;BME280;49465;57.664;39.686;2023-05-03T00:26:20;100549.38;;;10.05;42.25
63343;BME280;49465;57.664;39.686;2023-05-03T00:28:48;100533.75;;;10.03;41.94
63343;BME280;49465;57.664;39.686;2023-05-03T00:31:19;100539.00;;;10.03;41.07
63343;BME280;49465;57.664;39.686;2023-05-03T00:33:45;100533.94;;;10.00;41.73
63343;BME280;49465;57.664;39.686;2023-05-03T00:36:15;100534.63;;;10.04;42.63
63343;BME280;49465;57.664;39.686;2023-05-03T00:38:45;100532.25;;;9.99;41.69
63343;BME280;49465;57.664;39.686;2023-05-03T00:41:17;100532.00;;;10.04;41.93
63343;BME280;49465;57.664;39.686;2023-05-03T00:43:43;100521.78;;;9.99;42.10
63343;BME280;49465;57.664;39.686;2023-05-03T00:46:13;100528.97;;;9.96;42.39
63343;BME280;49465;57.664;39.686;2023-05-03T00:48:39;100521.09;;;9.96;41.79
63343;BME280;49465;57.664;39.686;2023-05-03T00:51:18;100529.03;;;10.24;42.00
63343;BME280;49465;57.664;39.686;2023-05-03T00:53:50;100526.56;;;10.07;41.62
63343;BME280;49465;57.664;39.686;2023-05-03T00:56:19;100527.50;;;10.06;42.74
63343;BME280;49465;57.664;39.686;2023-05-03T00:58:51;100518.47;;;9.96;42.09
63343;BME280;49465;57.664;39.686;2023-05-03T01:01:18;100519.34;;;9.96;42.11
63343;BME280;49465;57.664;39.686;2023-05-03T01:03:44;100522.03;;;9.95;41.70
63343;BME280;49465;57.664;39.686;2023-05-03T01:06:22;100518.59;;;9.94;41.73
63343;BME280;49465;57.664;39.686;2023-05-03T01:14:53;100511.66;;;10.23;42.14
63343;BME280;49465;57.664;39.686;2023-05-03T01:17:28;100508.16;;;10.08;42.57
63343;BME280;49465;57.664;39.686;2023-05-03T01:20:05;100514.13;;;10.10;42.17
63343;BME280;49465;57.664;39.686;2023-05-03T01:25:23;100498.41;;;10.84;40.39
63343;BME280;49465;57.664;39.686;2023-05-03T01:27:49;100494.28;;;10.06;41.46
63343;BME280;49465;57.664;39.686;2023-05-03T01:30:16;100490.53;;;9.96;41.99
63343;BME280;49465;57.664;39.686;2023-05-03T01:38:11;100485.91;;;10.16;42.91
63343;BME280;49465;57.664;39.686;2023-05-03T01:40:46;100475.78;;;10.09;42.60
63343;BME280;49465;57.664;39.686;2023-05-03T01:43:22;100483.56;;;10.25;42.97
63343;BME280;49465;57.664;39.686;2023-05-03T01:45:55;100477.34;;;9.98;41.85
63343;BME280;49465;57.664;39.686;2023-05-03T01:48:22;100471.25;;;9.97;42.24
63343;BME280;49465;57.664;39.686;2023-05-03T01:50:51;100469.50;;;9.98;42.11
63343;BME280;49465;57.664;39.686;2023-05-03T01:53:29;100460.69;;;10.13;42.49
63343;BME280;49465;57.664;39.686;2023-05-03T01:56:01;100449.31;;;10.14;43.06
63343;BME280;49465;57.664;39.686;2023-05-03T01:58:30;100450.13;;;10.00;42.21
63343;BME280;49465;57.664;39.686;2023-05-03T02:01:06;100458.81;;;10.15;42.99
63343;BME280;49465;57.664;39.686;2023-05-03T02:03:35;100445.56;;;10.04;42.64
63343;BME280;49465;57.664;39.686;2023-05-03T02:06:04;100444.69;;;10.03;42.65
63343;BME280;49465;57.664;39.686;2023-05-03T02:08:31;100441.22;;;10.03;42.96
63343;BME280;49465;57.664;39.686;2023-05-03T02:10:57;100440.31;;;10.04;42.83
63343;BME280;49465;57.664;39.686;2023-05-03T02:13:26;100435.81;;;10.06;42.59
63343;BME280;49465;57.664;39.686;2023-05-03T02:15:53;100432.34;;;10.05;42.56
63343;BME280;49465;57.664;39.686;2023-05-03T02:18:20;100431.50;;;10.05;42.34
63343;BME280;49465;57.664;39.686;2023-05-03T02:20:50;100438.63;;;10.17;43.58
63343;BME280;49465;57.664;39.686;2023-05-03T02:23:16;100438.25;;;10.09;42.67
63343;BME280;49465;57.664;39.686;2023-05-03T02:25:50;100433.13;;;10.22;43.11
63343;BME280;49465;57.664;39.686;2023-05-03T02:28:26;100425.94;;;10.40;42.83
63343;BME280;49465;57.664;39.686;2023-05-03T02:30:55;100426.84;;;10.24;43.48
63343;BME280;49465;57.664;39.686;2023-05-03T02:33:21;100429.09;;;10.16;42.72
63343;BME280;49465;57.664;39.686;2023-05-03T02:35:51;100422.81;;;10.19;42.84
63343;BME280;49465;57.664;39.686;2023-05-03T02:38:20;100427.25;;;10.33;42.93
63343;BME280;49465;57.664;39.686;2023-05-03T02:40:49;100426.84;;;10.24;42.65
63343;BME280;49465;57.664;39.686;2023-05-03T02:43:19;100416.34;;;10.24;42.93
63343;BME280;49465;57.664;39.686;2023-05-03T02:45:48;100413.75;;;10.39;43.72
63343;BME280;49465;57.664;39.686;2023-05-03T02:48:14;100409.16;;;10.28;43.17
63343;BME280;49465;57.664;39.686;2023-05-03T02:50:42;100407.22;;;10.32;42.97
63343;BME280;49465;57.664;39.686;2023-05-03T02:53:08;100398.41;;;10.33;43.23
63343;BME280;49465;57.664;39.686;2023-05-03T02:55:35;100402.53;;;10.37;42.95
63343;BME280;49465;57.664;39.686;2023-05-03T02:58:02;100398.59;;;10.44;42.65
63343;BME280;49465;57.664;39.686;2023-05-03T03:00:28;100397.38;;;10.49;42.74
63343;BME280;49465;57.664;39.686;2023-05-03T03:02:58;100395.19;;;10.56;42.73
63343;BME280;49465;57.664;39.686;2023-05-03T03:05:33;100402.09;;;10.86;43.71
63343;BME280;49465;57.664;39.686;2023-05-03T03:08:06;100393.88;;;10.63;42.89
63343;BME280;49465;57.664;39.686;2023-05-03T03:10:32;100390.88;;;10.69;42.92
63343;BME280;49465;57.664;39.686;2023-05-03T03:13:07;100395.16;;;10.85;42.58
63343;BME280;49465;57.664;39.686;2023-05-03T03:15:38;100401.41;;;10.97;42.93
63343;BME280;49465;57.664;39.686;2023-05-03T03:18:14;100398.22;;;11.19;42.29
63343;BME280;49465;57.664;39.686;2023-05-03T03:20:46;100399.66;;;11.10;42.23
63343;BME280;49465;57.664;39.686;2023-05-03T03:23:17;100391.31;;;11.18;42.20
63343;BME280;49465;57.664;39.686;2023-05-03T03:25:49;100396.72;;;11.15;41.98
63343;BME280;49465;57.664;39.686;2023-05-03T03:28:26;100395.47;;;11.47;42.26
63343;BME280;49465;57.664;39.686;2023-05-03T03:30:53;100396.06;;;11.25;42.28
63343;BME280;49465;57.664;39.686;2023-05-03T03:33:19;100388.59;;;11.32;42.42
63343;BME280;49465;57.664;39.686;2023-05-03T03:35:57;100392.84;;;11.47;42.11
63343;BME280;49465;57.664;39.686;2023-05-03T03:38:26;100391.69;;;11.52;42.23
63343;BME280;49465;57.664;39.686;2023-05-03T03:40:53;100387.78;;;11.44;42.06
63343;BME280;49465;57.664;39.686;2023-05-03T03:43:22;100388.25;;;11.64;41.75
63343;BME280;49465;57.664;39.686;2023-05-03T03:45:54;100378.97;;;11.58;41.71
63343;BME280;49465;57.664;39.686;2023-05-03T03:48:26;100372.47;;;11.64;42.06
63343;BME280;49465;57.664;39.686;2023-05-03T03:50:52;100368.31;;;11.74;42.02
63343;BME280;49465;57.664;39.686;2023-05-03T03:53:18;100370.72;;;11.77;41.78
63343;BME280;49465;57.664;39.686;2023-05-03T03:55:49;100380.94;;;11.95;41.75
63343;BME280;49465;57.664;39.686;2023-05-03T03:58:19;100370.53;;;12.06;41.92
63343;BME280;49465;57.664;39.686;2023-05-03T04:00:48;100369.16;;;12.00;41.40
63343;BME280;49465;57.664;39.686;2023-05-03T04:03:17;100367.28;;;12.15;41.33
63343;BME280;49465;57.664;39.686;2023-05-03T04:05:46;100366.72;;;12.23;41.79
63343;BME280;49465;57.664;39.686;2023-05-03T04:08:16;100358.44;;;12.16;41.70
63343;BME280;49465;57.664;39.686;2023-05-03T04:10:50;100368.59;;;12.34;41.96
63343;BME280;49465;57.664;39.686;2023-05-03T04:13:19;100367.34;;;12.26;41.67
63343;BME280;49465;57.664;39.686;2023-05-03T04:15:53;100365.94;;;12.46;41.75
63343;BME280;49465;57.664;39.686;2023-05-03T04:18:22;100363.75;;;12.40;41.19
63343;BME280;49465;57.664;39.686;2023-05-03T04:20:55;100362.81;;;12.41;41.20
63343;BME280;49465;57.664;39.686;2023-05-03T04:23:24;100356.47;;;12.57;41.43
63343;BME280;49465;57.664;39.686;2023-05-03T04:25:59;100358.59;;;12.76;41.15
63343;BME280;49465;57.664;39.686;2023-05-03T04:28:32;100356.00;;;12.63;41.26
63343;BME280;49465;57.664;39.686;2023-05-03T04:31:03;100354.94;;;12.65;41.44
63343;BME280;49465;57.664;39.686;2023-05-03T04:33:32;100354.50;;;12.72;41.18
63343;BME280;49465;57.664;39.686;2023-05-03T04:36:02;100352.50;;;12.75;41.12
63343;BME280;49465;57.664;39.686;2023-05-03T04:38:38;100351.47;;;12.89;41.07
63343;BME280;49465;57.664;39.686;2023-05-03T04:41:10;100357.81;;;12.86;41.05
63343;BME280;49465;57.664;39.686;2023-05-03T04:43:42;100360.63;;;12.96;40.79
63343;BME280;49465;57.664;39.686;2023-05-03T04:46:19;100350.19;;;13.19;40.84
63343;BME280;49465;57.664;39.686;2023-05-03T04:48:55;100355.56;;;13.17;40.36
63343;BME280;49465;57.664;39.686;2023-05-03T04:51:22;100355.44;;;13.19;40.70
63343;BME280;49465;57.664;39.686;2023-05-03T04:53:56;100352.88;;;13.30;40.96
63343;BME280;49465;57.664;39.686;2023-05-03T04:56:32;100363.28;;;13.67;40.38
63343;BME280;49465;57.664;39.686;2023-05-03T04:59:03;100345.38;;;13.48;40.15
63343;BME280;49465;57.664;39.686;2023-05-03T05:01:33;100355.88;;;13.72;40.88
63343;BME280;49465;57.664;39.686;2023-05-03T05:04:05;100359.47;;;13.82;39.68
63343;BME280;49465;57.664;39.686;2023-05-03T05:06:32;100351.31;;;13.85;39.86
63343;BME280;49465;57.664;39.686;2023-05-03T05:09:19;100359.25;;;14.19;39.36
63343;BME280;49465;57.664;39.686;2023-05-03T05:11:55;100352.75;;;14.46;40.50
63343;BME280;49465;57.664;39.686;2023-05-03T05:14:21;100353.50;;;14.26;39.43
63343;BME280;49465;57.664;39.686;2023-05-03T05:16:48;100338.63;;;14.47;38.88
63343;BME280;49465;57.664;39.686;2023-05-03T05:19:14;100342.91;;;14.48;39.23
63343;BME280;49465;57.664;39.686;2023-05-03T05:21:41;100333.09;;;14.61;38.66
63343;BME280;49465;57.664;39.686;2023-05-03T05:24:16;100321.78;;;14.82;39.33
63343;BME280;49465;57.664;39.686;2023-05-03T05:26:43;100333.38;;;14.91;38.88
63343;BME280;49465;57.664;39.686;2023-05-03T05:29:10;100334.00;;;15.15;38.80
63343;BME280;49465;57.664;39.686;2023-05-03T05:31:36;100330.84;;;15.21;38.67
63343;BME280;49465;57.664;39.686;2023-05-03T05:34:08;100331.56;;;15.45;37.89
63343;BME280;49465;57.664;39.686;2023-05-03T05:36:34;100320.00;;;15.46;38.04
63343;BME280;49465;57.664;39.686;2023-05-03T05:39:06;100337.69;;;15.66;38.01
63343;BME280;49465;57.664;39.686;2023-05-03T05:41:34;100335.53;;;15.60;38.13
63343;BME280;49465;57.664;39.686;2023-05-03T05:44:21;100346.09;;;16.02;38.00
63343;BME280;49465;57.664;39.686;2023-05-03T05:46:53;100337.47;;;15.79;37.84
63343;BME280;49465;57.664;39.686;2023-05-03T05:49:26;100337.66;;;15.87;37.82
63343;BME280;49465;57.664;39.686;2023-05-03T05:52:08;100345.72;;;15.86;38.05
63343;BME280;49465;57.664;39.686;2023-05-03T05:54:34;100356.50;;;15.73;37.69
63343;BME280;49465;57.664;39.686;2023-05-03T05:57:03;100367.09;;;15.73;38.67
63343;BME280;49465;57.664;39.686;2023-05-03T05:59:33;100376.09;;;15.49;39.01
63343;BME280;49465;57.664;39.686;2023-05-03T06:01:59;100381.25;;;15.51;39.17
63343;BME280;49465;57.664;39.686;2023-05-03T06:04:26;100386.91;;;15.46;38.69
63343;BME280;49465;57.664;39.686;2023-05-03T06:07:03;100404.38;;;15.37;39.57
63343;BME280;49465;57.664;39.686;2023-05-03T06:09:32;100404.59;;;15.13;40.12
63343;BME280;49465;57.664;39.686;2023-05-03T06:12:09;100407.63;;;15.30;41.68
63343;BME280;49465;57.664;39.686;2023-05-03T06:14:38;100414.56;;;14.98;40.71
63343;BME280;49465;57.664;39.686;2023-05-03T06:17:08;100412.44;;;14.92;41.08
63343;BME280;49465;57.664;39.686;2023-05-03T06:19:37;100411.75;;;14.79;42.59
63343;BME280;49465;57.664;39.686;2023-05-03T06:22:05;100417.41;;;14.74;41.64
63343;BME280;49465;57.664;39.686;2023-05-03T06:24:42;100412.34;;;14.71;42.43
63343;BME280;49465;57.664;39.686;2023-05-03T06:27:11;100410.81;;;14.57;43.33
63343;BME280;49465;57.664;39.686;2023-05-03T06:29:38;100415.13;;;14.47;42.86
63343;BME280;49465;57.664;39.686;2023-05-03T06:32:10;100410.66;;;14.48;43.71
63343;BME280;49465;57.664;39.686;2023-05-03T06:34:39;100406.94;;;14.50;43.13
63343;BME280;49465;57.664;39.686;2023-05-03T06:37:05;100411.88;;;14.43;43.88
63343;BME280;49465;57.664;39.686;2023-05-03T06:39:31;100404.91;;;14.42;43.95
63343;BME280;49465;57.664;39.686;2023-05-03T06:41:58;100403.63;;;14.37;44.18
63343;BME280;49465;57.664;39.686;2023-05-03T06:44:24;100414.38;;;14.34;44.03
63343;BME280;49465;57.664;39.686;2023-05-03T06:46:51;100420.63;;;14.21;44.69
63343;BME280;49465;57.664;39.686;2023-05-03T06:49:17;100422.78;;;14.16;44.78
63343;BME280;49465;57.664;39.686;2023-05-03T06:51:47;100421.09;;;14.15;44.39
63343;BME280;49465;57.664;39.686;2023-05-03T06:54:13;100422.53;;;14.08;44.65
63343;BME280;49465;57.664;39.686;2023-05-03T06:56:40;100418.34;;;14.06;44.91
63343;BME280;49465;57.664;39.686;2023-05-03T06:59:06;100421.69;;;13.96;45.54
63343;BME280;49465;57.664;39.686;2023-05-03T07:01:33;100426.44;;;13.91;45.76
63343;BME280;49465;57.664;39.686;2023-05-03T07:04:00;100429.09;;;13.91;45.75
63343;BME280;49465;57.664;39.686;2023-05-03T07:06:27;100418.22;;;13.96;45.49
63343;BME280;49465;57.664;39.686;2023-05-03T07:09:02;100421.69;;;14.19;46.97
63343;BME280;49465;57.664;39.686;2023-05-03T07:11:29;100418.06;;;13.97;45.58
63343;BME280;49465;57.664;39.686;2023-05-03T07:13:56;100415.44;;;13.97;46.16
63343;BME280;49465;57.664;39.686;2023-05-03T07:16:22;100417.00;;;14.00;45.79
63343;BME280;49465;57.664;39.686;2023-05-03T07:18:50;100422.63;;;13.95;45.80
63343;BME280;49465;57.664;39.686;2023-05-03T07:21:16;100421.81;;;14.06;45.63
63343;BME280;49465;57.664;39.686;2023-05-03T07:23:43;100423.13;;;14.12;45.18
63343;BME280;49465;57.664;39.686;2023-05-03T07:26:10;100420.97;;;14.17;46.06
63343;BME280;49465;57.664;39.686;2023-05-03T07:28:36;100425.19;;;14.19;46.25
63343;BME280;49465;57.664;39.686;2023-05-03T07:31:03;100429.50;;;14.32;46.16
63343;BME280;49465;57.664;39.686;2023-05-03T07:33:32;100429.13;;;14.36;46.01
63343;BME280;49465;57.664;39.686;2023-05-03T07:35:58;100437.66;;;14.40;45.96
63343;BME280;49465;57.664;39.686;2023-05-03T07:38:25;100443.31;;;14.47;45.90
63343;BME280;49465;57.664;39.686;2023-05-03T07:40:51;100435.00;;;14.51;45.54
63343;BME280;49465;57.664;39.686;2023-05-03T07:43:17;100433.34;;;14.61;45.74
63343;BME280;49465;57.664;39.686;2023-05-03T07:45:45;100438.25;;;14.77;45.13
63343;BME280;49465;57.664;39.686;2023-05-03T07:48:11;100429.22;;;15.02;44.75
63343;BME280;49465;57.664;39.686;2023-05-03T07:50:40;100433.75;;;15.12;44.36
63343;BME280;49465;57.664;39.686;2023-05-03T07:53:06;100446.44;;;15.18;45.42
63343;BME280;49465;57.664;39.686;2023-05-03T07:55:33;100437.00;;;15.36;44.29
63343;BME280;49465;57.664;39.686;2023-05-03T07:58:01;100439.56;;;15.27;44.38
63343;BME280;49465;57.664;39.686;2023-05-03T08:00:28;100449.16;;;15.39;44.14
63343;BME280;49465;57.664;39.686;2023-05-03T08:02:55;100448.66;;;15.45;44.29
63343;BME280;49465;57.664;39.686;2023-05-03T08:05:21;100442.38;;;15.46;45.37
63343;BME280;49465;57.664;39.686;2023-05-03T08:07:48;100441.94;;;15.73;44.47
63343;BME280;49465;57.664;39.686;2023-05-03T08:10:15;100446.63;;;15.91;44.05
63343;BME280;49465;57.664;39.686;2023-05-03T08:12:42;100454.50;;;16.02;44.43
63343;BME280;49465;57.664;39.686;2023-05-03T08:15:08;100453.09;;;16.29;43.50
63343;BME280;49465;57.664;39.686;2023-05-03T08:17:41;100460.44;;;16.46;43.66
63343;BME280;49465;57.664;39.686;2023-05-03T08:20:10;100456.28;;;16.53;43.50
63343;BME280;49465;57.664;39.686;2023-05-03T08:22:40;100461.66;;;16.73;44.20
63343;BME280;49465;57.664;39.686;2023-05-03T08:25:07;100459.16;;;16.71;43.59
63343;BME280;49465;57.664;39.686;2023-05-03T08:27:34;100442.94;;;16.86;44.51
63343;BME280;49465;57.664;39.686;2023-05-03T08:30:02;100448.41;;;17.13;43.32
63343;BME280;49465;57.664;39.686;2023-05-03T08:32:29;100444.53;;;17.37;42.48
63343;BME280;49465;57.664;39.686;2023-05-03T08:34:56;100440.19;;;17.55;42.16
63343;BME280;49465;57.664;39.686;2023-05-03T08:37:23;100439.06;;;17.77;42.31
63343;BME280;49465;57.664;39.686;2023-05-03T08:39:49;100446.44;;;18.03;42.95
63343;BME280;49465;57.664;39.686;2023-05-03T08:42:16;100440.81;;;18.26;41.51
63343;BME280;49465;57.664;39.686;2023-05-03T08:44:47;100444.94;;;18.66;41.10
63343;BME280;49465;57.664;39.686;2023-05-03T08:47:15;100445.16;;;18.54;41.30
63343;BME280;49465;57.664;39.686;2023-05-03T08:49:43;100441.94;;;18.88;40.54
63343;BME280;49465;57.664;39.686;2023-05-03T08:52:14;100437.66;;;19.05;40.54
63343;BME280;49465;57.664;39.686;2023-05-03T08:54:46;100433.38;;;19.12;40.98
63343;BME280;49465;57.664;39.686;2023-05-03T08:57:14;100437.47;;;19.25;40.85
63343;BME280;49465;57.664;39.686;2023-05-03T08:59:51;100441.28;;;19.58;39.69
63343;BME280;49465;57.664;39.686;2023-05-03T09:02:27;100446.53;;;19.50;40.51
63343;BME280;49465;57.664;39.686;2023-05-03T09:04:54;100429.38;;;19.62;39.86
63343;BME280;49465;57.664;39.686;2023-05-03T09:07:21;100430.81;;;19.74;39.58
63343;BME280;49465;57.664;39.686;2023-05-03T09:09:48;100429.25;;;19.90;39.88
63343;BME280;49465;57.664;39.686;2023-05-03T09:12:33;100435.53;;;20.41;37.81
63343;BME280;49465;57.664;39.686;2023-05-03T09:15:01;100425.94;;;20.22;39.05
63343;BME280;49465;57.664;39.686;2023-05-03T09:17:28;100433.03;;;20.40;38.26
63343;BME280;49465;57.664;39.686;2023-05-03T09:19:56;100426.75;;;20.49;38.14
63343;BME280;49465;57.664;39.686;2023-05-03T09:22:26;100442.41;;;20.52;38.09
63343;BME280;49465;57.664;39.686;2023-05-03T09:24:57;100436.84;;;20.37;38.60
63343;BME280;49465;57.664;39.686;2023-05-03T09:27:25;100429.78;;;20.20;38.30
63343;BME280;49465;57.664;39.686;2023-05-03T09:29:54;100426.97;;;20.21;38.74
63343;BME280;49465;57.664;39.686;2023-05-03T09:32:21;100425.13;;;20.22;38.55
63343;BME280;49465;57.664;39.686;2023-05-03T09:34:50;100435.09;;;20.20;38.54
63343;BME280;49465;57.664;39.686;2023-05-03T09:37:16;100439.53;;;19.85;38.42
63343;BME280;49465;57.664;39.686;2023-05-03T09:39:45;100442.50;;;19.82;38.29
63343;BME280;49465;57.664;39.686;2023-05-03T09:42:13;100446.22;;;19.71;38.42
63343;BME280;49465;57.664;39.686;2023-05-03T09:44:48;100445.00;;;19.83;38.39
63343;BME280;49465;57.664;39.686;2023-05-03T09:47:16;100444.13;;;19.74;38.34
63343;BME280;49465;57.664;39.686;2023-05-03T09:49:47;100448.66;;;19.64;38.80
63343;BME280;49465;57.664;39.686;2023-05-03T09:52:13;100453.44;;;19.61;38.53
63343;BME280;49465;57.664;39.686;2023-05-03T09:54:40;100462.72;;;19.56;38.80
63343;BME280;49465;57.664;39.686;2023-05-03T09:57:10;100467.28;;;19.64;39.13
63343;BME280;49465;57.664;39.686;2023-05-03T09:59:47;100461.72;;;19.75;39.12
63343;BME280;49465;57.664;39.686;2023-05-03T10:02:18;100461.28;;;19.62;39.57
63343;BME280;49465;57.664;39.686;2023-05-03T10:04:56;100475.75;;;19.68;39.67
63343;BME280;49465;57.664;39.686;2023-05-03T10:07:25;100467.44;;;19.63;39.81
63343;BME280;49465;57.664;39.686;2023-05-03T10:10:04;100476.81;;;19.93;39.41
63343;BME280;49465;57.664;39.686;2023-05-03T10:12:35;100460.59;;;19.78;39.27
63343;BME280;49465;57.664;39.686;2023-05-03T10:15:05;100474.41;;;20.00;39.02
63343;BME280;49465;57.664;39.686;2023-05-03T10:17:37;100477.41;;;19.79;38.74
63343;BME280;49465;57.664;39.686;2023-05-03T10:20:27;100477.78;;;19.84;38.71
63343;BME280;49465;57.664;39.686;2023-05-03T10:25:34;100477.06;;;19.64;38.37
63343;BME280;49465;57.664;39.686;2023-05-03T10:28:06;100477.66;;;19.58;38.38
63343;BME280;49465;57.664;39.686;2023-05-03T10:30:38;100476.72;;;19.77;38.34
63343;BME280;49465;57.664;39.686;2023-05-03T10:35:53;100479.63;;;19.91;38.21
63343;BME280;49465;57.664;39.686;2023-05-03T10:38:27;100479.28;;;19.86;37.40
63343;BME280;49465;57.664;39.686;2023-05-03T10:41:00;100470.53;;;19.94;37.73
63343;BME280;49465;57.664;39.686;2023-05-03T10:46:02;100476.34;;;20.15;37.03
63343;BME280;49465;57.664;39.686;2023-05-03T10:48:34;100469.38;;;20.23;37.22
63343;BME280;49465;57.664;39.686;2023-05-03T10:53:57;100475.53;;;20.49;36.28
63343;BME280;49465;57.664;39.686;2023-05-03T10:56:24;100468.22;;;20.51;35.97
63343;BME280;49465;57.664;39.686;2023-05-03T10:58:50;100473.44;;;20.61;36.25
63343;BME280;49465;57.664;39.686;2023-05-03T11:01:22;100470.94;;;20.60;35.58
63343;BME280;49465;57.664;39.686;2023-05-03T11:06:31;100485.53;;;20.55;34.98
63343;BME280;49465;57.664;39.686;2023-05-03T11:08:58;100480.50;;;20.70;35.51
63343;BME280;49465;57.664;39.686;2023-05-03T11:11:32;100482.19;;;20.53;35.73
63343;BME280;49465;57.664;39.686;2023-05-03T11:14:01;100495.06;;;20.58;35.86
63343;BME280;49465;57.664;39.686;2023-05-03T11:16:28;100498.91;;;20.38;35.78
63343;BME280;49465;57.664;39.686;2023-05-03T11:18:56;100490.81;;;20.47;35.99
63343;BME280;49465;57.664;39.686;2023-05-03T11:21:23;100486.91;;;20.33;35.82
63343;BME280;49465;57.664;39.686;2023-05-03T11:23:50;100481.84;;;20.48;36.02
63343;BME280;49465;57.664;39.686;2023-05-03T11:26:16;100489.13;;;20.46;36.12
63343;BME280;49465;57.664;39.686;2023-05-03T11:28:44;100481.59;;;20.33;36.11
63343;BME280;49465;57.664;39.686;2023-05-03T11:31:11;100491.25;;;20.34;35.82
63343;BME280;49465;57.664;39.686;2023-05-03T11:33:41;100485.34;;;20.23;35.77
63343;BME280;49465;57.664;39.686;2023-05-03T11:36:09;100491.41;;;20.33;35.61
63343;BME280;49465;57.664;39.686;2023-05-03T11:38:38;100489.22;;;20.28;35.85
63343;BME280;49465;57.664;39.686;2023-05-03T11:41:16;100495.38;;;20.29;35.96
63343;BME280;49465;57.664;39.686;2023-05-03T11:43:44;100494.72;;;20.27;35.80
63343;BME280;49465;57.664;39.686;2023-05-03T11:46:16;100485.88;;;20.26;36.07
63343;BME280;49465;57.664;39.686;2023-05-03T11:48:44;100478.44;;;20.38;35.43
63343;BME280;49465;57.664;39.686;2023-05-03T11:51:11;100471.31;;;20.39;35.74
63343;BME280;49465;57.664;39.686;2023-05-03T11:53:40;100480.59;;;20.61;35.47
63343;BME280;49465;57.664;39.686;2023-05-03T11:56:11;100477.34;;;20.49;34.75
63343;BME280;49465;57.664;39.686;2023-05-03T11:58:52;100484.28;;;20.68;34.89
63343;BME280;49465;57.664;39.686;2023-05-03T12:01:19;100476.56;;;20.99;34.80
63343;BME280;49465;57.664;39.686;2023-05-03T12:03:47;100485.81;;;20.44;34.57
63343;BME280;49465;57.664;39.686;2023-05-03T12:06:15;100486.31;;;20.48;34.60
63343;BME280;49465;57.664;39.686;2023-05-03T12:08:42;100483.44;;;20.33;34.33
63343;BME280;49465;57.664;39.686;2023-05-03T12:11:09;100488.97;;;20.13;34.46
63343;BME280;49465;57.664;39.686;2023-05-03T12:13:38;100482.44;;;20.08;34.47
63343;BME280;49465;57.664;39.686;2023-05-03T12:16:10;100491.78;;;20.12;34.38
63343;BME280;49465;57.664;39.686;2023-05-03T12:18:56;100492.25;;;20.07;34.43
63343;BME280;49465;57.664;39.686;2023-05-03T12:21:43;100517.50;;;20.03;34.40
63343;BME280;49465;57.664;39.686;2023-05-03T12:24:10;100503.03;;;19.52;34.85
63343;BME280;49465;57.664;39.686;2023-05-03T12:26:36;100515.28;;;19.27;35.21
63343;BME280;49465;57.664;39.686;2023-05-03T12:29:03;100524.84;;;19.38;34.87
63343;BME280;49465;57.664;39.686;2023-05-03T12:31:29;100517.78;;;19.01;35.24
63343;BME280;49465;57.664;39.686;2023-05-03T12:33:56;100519.72;;;18.81;35.66
63343;BME280;49465;57.664;39.686;2023-05-03T12:36:22;100528.16;;;18.56;36.51
63343;BME280;49465;57.664;39.686;2023-05-03T12:38:49;100532.03;;;18.72;36.01
63343;BME280;49465;57.664;39.686;2023-05-03T12:41:16;100527.97;;;18.68;36.59
63343;BME280;49465;57.664;39.686;2023-05-03T12:43:52;100525.34;;;18.58;37.16
63343;BME280;49465;57.664;39.686;2023-05-03T12:46:24;100519.66;;;18.90;38.07
63343;BME280;49465;57.664;39.686;2023-05-03T12:48:52;100527.63;;;18.90;37.04
63343;BME280;49465;57.664;39.686;2023-05-03T12:51:21;100524.78;;;19.02;37.75
63343;BME280;49465;57.664;39.686;2023-05-03T12:53:50;100525.53;;;18.94;37.34
63343;BME280;49465;57.664;39.686;2023-05-03T12:56:16;100526.06;;;18.98;37.50
63343;BME280;49465;57.664;39.686;2023-05-03T12:58:48;100525.97;;;19.17;36.96
63343;BME280;49465;57.664;39.686;2023-05-03T13:01:17;100516.72;;;19.21;37.42
63343;BME280;49465;57.664;39.686;2023-05-03T13:03:49;100523.56;;;19.42;36.89
63343;BME280;49465;57.664;39.686;2023-05-03T13:06:15;100509.72;;;19.56;37.35
63343;BME280;49465;57.664;39.686;2023-05-03T13:08:49;100511.91;;;19.88;36.40
63343;BME280;49465;57.664;39.686;2023-05-03T13:11:16;100510.78;;;19.99;35.95
63343;BME280;49465;57.664;39.686;2023-05-03T13:13:54;100515.84;;;20.28;35.73
63343;BME280;49465;57.664;39.686;2023-05-03T13:16:24;100506.63;;;20.23;35.43
63343;BME280;49465;57.664;39.686;2023-05-03T13:18:54;100527.34;;;20.11;35.98
63343;BME280;49465;57.664;39.686;2023-05-03T13:21:24;100529.03;;;20.12;35.66